Time;durP1;ratioP1;P1;durP2;ratioP2;P2;SDS_P1;SDS_P2;PMS_P1;PMS_P2;Temp;Humidity;BMP_temperature;BMP_pressure;BME280_temperature;BME280_humidity;BME280_pressure;Samples;Min_cycle;Max_cycle;Signal;HPM_P1;HPM_P2
2023/05/16 00:03:05;;;;;;;10.43;9.27;;;12.80;99.90;;;;;;10273049;29;20222;-77
2023/05/16 00:08:26;;;;;;;9.68;8.68;;;12.80;99.90;;;;;;10273113;29;20226;-76
2023/05/16 00:13:47;;;;;;;9.65;8.68;;;12.80;99.90;;;;;;10273732;29;20429;-74
2023/05/16 00:19:08;;;;;;;7.30;6.60;;;12.80;99.90;;;;;;10246055;29;20214;-75
2023/05/16 00:24:31;;;;;;;6.95;6.32;;;12.70;99.90;;;;;;10246737;29;20233;-75
2023/05/16 00:29:52;;;;;;;9.32;7.25;;;12.70;99.90;;;;;;10237787;29;20412;-75
2023/05/16 00:35:13;;;;;;;7.88;7.07;;;12.60;99.90;;;;;;10280697;28;20212;-75
2023/05/16 00:40:35;;;;;;;7.05;6.38;;;12.70;99.90;;;;;;10279663;28;20200;-76
2023/05/16 00:45:59;;;;;;;7.55;6.82;;;12.60;99.90;;;;;;10279660;28;20548;-75
2023/05/16 00:51:21;;;;;;;7.47;6.72;;;12.70;99.90;;;;;;10279517;29;20233;-75
2023/05/16 00:56:43;;;;;;;7.68;6.88;;;12.70;99.90;;;;;;10280055;28;20243;-76
2023/05/16 01:02:04;;;;;;;9.10;7.20;;;12.70;99.90;;;;;;10278752;29;20500;-75
2023/05/16 01:07:25;;;;;;;7.47;6.78;;;12.70;99.90;;;;;;10279931;29;20276;-74
2023/05/16 01:12:52;;;;;;;7.95;7.15;;;12.60;99.90;;;;;;10279248;29;20504;-75
2023/05/16 01:18:36;;;;;;;7.88;7.03;;;12.60;99.90;;;;;;10275874;28;20288;-76
2023/05/16 01:24:08;;;;;;;7.63;6.78;;;12.60;99.90;;;;;;10278304;29;20258;-74
2023/05/16 01:29:29;;;;;;;6.70;6.10;;;12.60;99.90;;;;;;10277395;29;20279;-73
2023/05/16 01:34:51;;;;;;;6.78;6.18;;;12.50;99.90;;;;;;10271509;28;20209;-75
2023/05/16 01:40:26;;;;;;;6.97;6.38;;;12.50;99.90;;;;;;10277463;28;20207;-75
2023/05/16 01:45:53;;;;;;;5.63;4.57;;;12.50;99.90;;;;;;10273861;29;20299;-76
2023/05/16 01:51:15;;;;;;;4.55;4.15;;;12.50;99.90;;;;;;10249738;29;20230;-74
2023/05/16 01:56:37;;;;;;;3.72;3.42;;;12.50;99.90;;;;;;10256542;29;20202;-76
2023/05/16 02:01:59;;;;;;;3.65;3.35;;;12.50;99.90;;;;;;10261734;29;20457;-75
2023/05/16 02:07:20;;;;;;;3.85;3.38;;;12.50;99.90;;;;;;10276562;28;20202;-77
2023/05/16 02:12:41;;;;;;;3.67;3.38;;;12.50;99.90;;;;;;10276857;28;20249;-75
2023/05/16 02:18:03;;;;;;;6.32;3.78;;;12.40;99.90;;;;;;10272939;29;20204;-75
2023/05/16 02:23:25;;;;;;;3.40;3.10;;;12.40;99.90;;;;;;10236002;29;20431;-75
2023/05/16 02:28:48;;;;;;;10.13;5.90;;;12.30;99.90;;;;;;10236250;29;20204;-74
2023/05/16 02:34:09;;;;;;;2.33;2.15;;;12.30;99.90;;;;;;10229352;29;20425;-76
2023/05/16 02:39:31;;;;;;;1.80;1.70;;;12.20;99.90;;;;;;10303259;28;20213;-76
2023/05/16 02:44:52;;;;;;;3.45;1.70;;;12.10;99.90;;;;;;10261985;29;20242;-76
2023/05/16 02:50:13;;;;;;;1.50;1.40;;;12.10;99.90;;;;;;10301204;28;20293;-75
2023/05/16 02:55:36;;;;;;;1.70;1.60;;;12.00;99.90;;;;;;10273907;29;20207;-76
2023/05/16 03:00:58;;;;;;;3.03;1.90;;;;;;;;;;10274422;29;20205;-74
2023/05/16 03:06:20;;;;;;;1.57;1.47;;;;;;;;;;10273090;28;20217;-75
2023/05/16 03:11:55;;;;;;;1.70;1.60;;;;;;;;;;10275172;28;20229;-75
2023/05/16 03:17:16;;;;;;;1.90;1.60;;;11.70;99.90;;;;;;10260546;29;20211;-75
2023/05/16 03:22:39;;;;;;;2.40;1.90;;;11.80;99.90;;;;;;10255354;29;20222;-75
2023/05/16 03:28:00;;;;;;;1.73;1.43;;;11.80;99.90;;;;;;10273578;29;20237;-74
2023/05/16 03:33:23;;;;;;;1.30;1.20;;;11.80;99.90;;;;;;10274449;28;20273;-76
2023/05/16 03:38:44;;;;;;;0.90;0.90;;;11.70;99.90;;;;;;10272273;29;20209;-76
2023/05/16 03:44:05;;;;;;;0.80;0.80;;;11.70;99.90;;;;;;10274498;29;20253;-74
2023/05/16 03:49:27;;;;;;;0.90;0.90;;;11.60;99.90;;;;;;10273900;29;20500;-74
2023/05/16 03:54:48;;;;;;;1.40;1.30;;;11.60;99.90;;;;;;10269854;29;20206;-75
2023/05/16 04:00:11;;;;;;;1.20;1.10;;;11.50;99.90;;;;;;10274206;29;20199;-75
2023/05/16 04:05:32;;;;;;;1.30;1.20;;;11.50;99.90;;;;;;10278147;28;20198;-76
2023/05/16 04:10:53;;;;;;;1.30;1.20;;;11.30;99.90;;;;;;10277198;29;20248;-76
2023/05/16 04:16:14;;;;;;;1.40;1.30;;;11.30;99.90;;;;;;10281779;29;20224;-76
2023/05/16 04:21:35;;;;;;;1.40;1.30;;;11.30;99.90;;;;;;10280134;29;20260;-75
2023/05/16 04:26:56;;;;;;;1.23;1.13;;;11.30;99.90;;;;;;10281002;28;20299;-75
2023/05/16 04:32:18;;;;;;;1.47;1.37;;;11.20;99.90;;;;;;10280841;29;20233;-75
2023/05/16 04:37:39;;;;;;;1.50;1.40;;;11.30;99.90;;;;;;10279201;28;20411;-75
2023/05/16 04:43:00;;;;;;;1.90;1.70;;;11.30;99.90;;;;;;10279444;28;20202;-75
2023/05/16 04:48:21;;;;;;;2.87;2.20;;;11.40;99.90;;;;;;10247148;28;20247;-74
2023/05/16 04:53:42;;;;;;;2.20;1.90;;;11.40;99.90;;;;;;10268208;29;20234;-76
2023/05/16 04:59:03;;;;;;;3.27;2.17;;;11.40;99.90;;;;;;10278841;28;20210;-75
2023/05/16 05:04:25;;;;;;;2.87;2.43;;;11.50;99.90;;;;;;10239955;29;20199;-76
2023/05/16 05:09:46;;;;;;;4.73;2.50;;;11.40;99.90;;;;;;10261174;29;20242;-75
2023/05/16 05:15:07;;;;;;;12.03;8.03;;;11.50;99.90;;;;;;10248407;28;20276;-75
2023/05/16 05:20:29;;;;;;;4.70;3.93;;;11.50;99.90;;;;;;10277832;28;20208;-76
2023/05/16 05:25:50;;;;;;;5.47;3.57;;;11.50;99.90;;;;;;10276525;28;20375;-75
2023/05/16 05:31:11;;;;;;;5.63;3.47;;;11.50;99.90;;;;;;10277554;28;20241;-76
2023/05/16 05:36:32;;;;;;;4.40;3.23;;;11.40;99.90;;;;;;10278544;28;20516;-75
2023/05/16 05:41:53;;;;;;;3.73;3.10;;;11.50;99.90;;;;;;10277195;29;20451;-75
2023/05/16 05:47:14;;;;;;;6.27;3.30;;;11.50;99.90;;;;;;10278234;28;20196;-77
2023/05/16 05:52:35;;;;;;;4.93;2.80;;;11.50;99.90;;;;;;10273972;28;20240;-75
2023/05/16 05:57:57;;;;;;;5.80;2.70;;;11.50;99.90;;;;;;10278488;28;20282;-77
2023/05/16 06:03:19;;;;;;;3.27;2.80;;;11.60;99.90;;;;;;10279552;29;20280;-76
2023/05/16 06:08:41;;;;;;;2.73;2.53;;;11.50;99.90;;;;;;10277477;28;20229;-77
2023/05/16 06:14:02;;;;;;;3.57;2.30;;;11.50;99.90;;;;;;10276760;29;20236;-76
2023/05/16 06:19:23;;;;;;;2.33;1.67;;;11.50;99.90;;;;;;10276090;29;20193;-76
2023/05/16 06:24:45;;;;;;;1.47;1.37;;;11.60;99.90;;;;;;10275955;28;20262;-77
2023/05/16 06:30:06;;;;;;;1.53;1.43;;;11.60;99.90;;;;;;10275916;28;20295;-77
2023/05/16 06:35:27;;;;;;;1.33;1.10;;;11.60;99.90;;;;;;10276423;29;20267;-77
2023/05/16 06:40:48;;;;;;;1.40;1.10;;;11.60;99.90;;;;;;10274523;28;20274;-76
2023/05/16 06:46:09;;;;;;;0.83;0.83;;;11.60;99.90;;;;;;10276168;28;20202;-77
2023/05/16 06:51:31;;;;;;;6.63;1.13;;;11.70;99.90;;;;;;10276003;29;20225;-77
2023/05/16 06:56:51;;;;;;;0.60;0.60;;;11.80;99.90;;;;;;10274123;29;20248;-77
2023/05/16 07:02:13;;;;;;;0.70;0.50;;;11.80;99.90;;;;;;10275458;28;20400;-76
2023/05/16 07:07:34;;;;;;;0.60;0.60;;;11.90;99.90;;;;;;10275310;28;20195;-76
2023/05/16 07:18:50;;;;;;;3.20;0.80;;;12.00;99.90;;;;;;10602740;23;20500;-77
2023/05/16 07:24:11;;;;;;;1.63;0.90;;;12.00;99.90;;;;;;10146307;29;20281;-76
2023/05/16 07:29:32;;;;;;;0.77;0.77;;;12.00;99.90;;;;;;10068106;29;20251;-75
2023/05/16 07:34:53;;;;;;;0.98;0.80;;;12.00;99.90;;;;;;10100987;29;20212;-76
2023/05/16 07:40:16;;;;;;;0.83;0.83;;;12.10;99.90;;;;;;10069885;29;20225;-74
2023/05/16 07:45:39;;;;;;;1.00;1.00;;;12.10;99.90;;;;;;10099960;29;20197;-73
2023/05/16 07:51:00;;;;;;;2.00;1.43;;;12.00;99.90;;;;;;10086384;29;20235;-78
2023/05/16 07:56:22;;;;;;;2.20;1.80;;;12.00;99.90;;;;;;10143567;29;20199;-78
2023/05/16 08:01:43;;;;;;;3.53;2.42;;;12.10;99.90;;;;;;10172725;29;20201;-78
2023/05/16 08:07:04;;;;;;;2.53;2.00;;;12.20;99.90;;;;;;10154209;29;20223;-75
2023/05/16 08:12:29;;;;;;;4.33;2.80;;;12.20;99.90;;;;;;10140031;29;20249;-75
2023/05/16 08:17:50;;;;;;;3.97;2.47;;;12.20;99.90;;;;;;10118195;29;20236;-75
2023/05/16 08:23:13;;;;;;;3.90;2.53;;;12.40;99.90;;;;;;10123846;29;20201;-78
2023/05/16 08:28:34;;;;;;;2.30;2.10;;;12.50;99.90;;;;;;10113242;29;20213;-77
2023/05/16 08:33:55;;;;;;;5.50;2.92;;;12.70;99.90;;;;;;10074340;29;20235;-79
2023/05/16 08:39:16;;;;;;;4.38;2.72;;;12.90;99.90;;;;;;10092843;29;20209;-76
2023/05/16 08:44:37;;;;;;;4.38;2.90;;;13.20;99.90;;;;;;10122353;29;20424;-78
2023/05/16 08:50:00;;;;;;;3.50;2.45;;;13.10;99.90;;;;;;10102399;29;20400;-73
2023/05/16 08:55:23;;;;;;;2.60;2.33;;;13.10;99.90;;;;;;10116933;29;20205;-76
2023/05/16 09:00:45;;;;;;;3.65;2.60;;;13.00;99.90;;;;;;10148536;29;20213;-75
2023/05/16 09:06:06;;;;;;;4.13;2.40;;;12.90;99.90;;;;;;10155665;29;20195;-76
2023/05/16 09:11:28;;;;;;;3.03;2.30;;;12.90;99.90;;;;;;10102892;29;20232;-75
2023/05/16 09:17:08;;;;;;;4.25;2.50;;;12.90;99.90;;;;;;10101905;29;20259;-74
2023/05/16 09:22:31;;;;;;;4.03;2.60;;;12.90;99.90;;;;;;10064391;29;20213;-78
2023/05/16 09:27:56;;;;;;;2.42;2.22;;;12.80;99.90;;;;;;10105366;29;20235;-76
2023/05/16 09:33:17;;;;;;;2.97;2.03;;;12.80;99.90;;;;;;10093249;29;20240;-74
2023/05/16 09:38:38;;;;;;;2.45;2.25;;;12.80;99.90;;;;;;10076938;29;20226;-78
2023/05/16 09:44:04;;;;;;;10.48;6.57;;;12.90;99.90;;;;;;10077499;29;20293;-75
2023/05/16 09:49:26;;;;;;;3.58;2.70;;;12.90;99.90;;;;;;10086986;29;20214;-79
2023/05/16 09:54:48;;;;;;;3.05;2.78;;;13.00;99.90;;;;;;10086980;29;20303;-75
2023/05/16 10:00:10;;;;;;;4.45;3.10;;;13.00;99.90;;;;;;10106478;29;20204;-74
2023/05/16 10:05:32;;;;;;;5.80;3.45;;;13.10;99.90;;;;;;10137385;29;20219;-78
2023/05/16 10:10:55;;;;;;;4.55;3.28;;;13.40;99.90;;;;;;10100603;29;20225;-77
2023/05/16 10:16:20;;;;;;;5.65;3.88;;;13.60;99.90;;;;;;10093884;29;20248;-76
2023/05/16 10:21:46;;;;;;;4.90;3.72;;;13.80;99.90;;;;;;10096672;29;20284;-78
2023/05/16 10:27:08;;;;;;;4.05;3.08;;;13.80;99.90;;;;;;10131908;29;20213;-78
2023/05/16 10:32:33;;;;;;;3.95;3.55;;;;;;;;;;10134019;29;20233;-79
2023/05/16 10:37:56;;;;;;;4.00;3.50;;;;;;;;;;10131551;29;20201;-78
2023/05/16 10:43:29;;;;;;;5.00;4.50;;;;;;;;;;10102786;29;20204;-75
2023/05/16 10:49:04;;;;;;;5.72;4.85;;;;;;;;;;10100607;29;20399;-84
2023/05/16 10:54:50;;;;;;;4.93;4.38;;;;;;;;;;10074510;29;20231;-80
2023/05/16 11:00:23;;;;;;;7.68;5.13;;;;;;;;;;10080766;29;20504;-80
2023/05/16 11:05:51;;;;;;;6.93;5.55;;;;;;;;;;10095528;29;20195;-77
2023/05/16 11:11:31;;;;;;;7.07;5.57;;;;;;;;;;10140391;29;20306;-81
2023/05/16 11:17:13;;;;;;;9.52;6.72;;;;;;;;;;10135430;29;20337;-78
2023/05/16 11:22:42;;;;;;;11.23;8.30;;;;;;;;;;10068888;29;20219;-74
2023/05/16 11:28:03;;;;;;;10.82;7.25;;;;;;;;;;10099245;29;20265;-77
2023/05/16 11:33:26;;;;;;;9.43;8.40;;;;;;;;;;10085414;29;20247;-80
2023/05/16 11:38:47;;;;;;;14.27;10.63;;;;;;;;;;10073557;29;20224;-77
2023/05/16 11:44:11;;;;;;;12.27;9.30;;;;;;;;;;10052101;29;20212;-76
2023/05/16 11:49:34;;;;;;;15.35;9.05;;;;;;;;;;10061930;29;20216;-74
2023/05/16 11:54:57;;;;;;;14.43;8.20;;;;;;;;;;10077476;29;20281;-78
2023/05/16 12:00:20;;;;;;;11.90;6.78;;;;;;;;;;10122195;29;20207;-74
2023/05/16 12:05:52;;;;;;;10.40;6.93;;;;;;;;;;10100726;29;20222;-76
2023/05/16 12:11:14;;;;;;;9.93;7.82;;;;;;;;;;10119425;29;20224;-77
2023/05/16 12:16:37;;;;;;;10.60;7.82;;;;;;;;;;10116780;29;20231;-76
2023/05/16 12:21:58;;;;;;;8.90;6.75;;;;;;;;;;10096472;29;20290;-75
2023/05/16 12:27:24;;;;;;;14.23;8.73;;;;;;;;;;10119026;29;20530;-76
2023/05/16 12:32:45;;;;;;;11.25;9.02;;;;;;;;;;10141637;29;20619;-78
2023/05/16 12:38:08;;;;;;;16.60;9.68;;;14.20;99.90;;;;;;10121426;29;20219;-76
2023/05/16 12:43:30;;;;;;;10.30;8.82;;;14.30;99.90;;;;;;10101248;29;20234;-77
2023/05/16 12:49:03;;;;;;;10.90;8.55;;;14.30;99.90;;;;;;10095190;29;20307;-74
2023/05/16 12:54:24;;;;;;;12.50;8.93;;;14.30;99.90;;;;;;10118282;29;20239;-77
2023/05/16 12:59:45;;;;;;;12.45;8.68;;;14.10;99.90;;;;;;10115747;29;20231;-77
2023/05/16 13:05:07;;;;;;;13.50;10.00;;;14.20;99.90;;;;;;10113521;29;20294;-77
2023/05/16 13:10:28;;;;;;;11.98;8.85;;;13.90;99.90;;;;;;10147565;29;20214;-76
2023/05/16 13:15:50;;;;;;;12.98;9.02;;;13.60;99.90;;;;;;10094985;29;20250;-76
2023/05/16 13:21:11;;;;;;;11.50;8.80;;;13.50;99.90;;;;;;10090418;29;20211;-79
2023/05/16 13:26:33;;;;;;;19.13;9.07;;;13.40;99.90;;;;;;10104248;29;20207;-77
2023/05/16 13:31:55;;;;;;;15.43;9.60;;;13.40;99.90;;;;;;10147042;29;20223;-76
2023/05/16 13:37:17;;;;;;;15.52;9.75;;;13.40;99.90;;;;;;10109306;29;20207;-78
2023/05/16 13:42:38;;;;;;;14.52;9.85;;;;;;;;;;10107068;29;20275;-76
2023/05/16 13:48:00;;;;;;;15.27;10.35;;;13.10;99.90;;;;;;10101636;29;20373;-79
2023/05/16 13:53:21;;;;;;;12.70;9.38;;;13.10;99.90;;;;;;10087961;29;20307;-79
2023/05/16 13:58:42;;;;;;;11.93;10.05;;;13.00;99.90;;;;;;10078141;29;20585;-78
2023/05/16 14:04:12;;;;;;;13.40;10.10;;;13.00;99.90;;;;;;10112435;29;20209;-78
2023/05/16 14:09:36;;;;;;;12.20;8.43;;;13.00;99.90;;;;;;10099717;29;20449;-76
2023/05/16 14:14:58;;;;;;;10.40;8.20;;;13.00;99.90;;;;;;10062316;29;20250;-76
2023/05/16 14:20:19;;;;;;;11.95;8.52;;;12.90;99.90;;;;;;10060037;29;20252;-77
2023/05/16 14:25:40;;;;;;;9.45;7.05;;;13.00;99.90;;;;;;10085689;29;20218;-77
2023/05/16 14:31:01;;;;;;;12.15;6.75;;;12.90;99.90;;;;;;10062473;29;20204;-79
2023/05/16 14:36:22;;;;;;;7.88;5.32;;;12.90;99.90;;;;;;10113522;29;20212;-79
2023/05/16 14:41:43;;;;;;;15.40;6.87;;;12.90;99.90;;;;;;10076655;29;20203;-78
2023/05/16 14:47:05;;;;;;;9.80;6.22;;;12.90;99.90;;;;;;10137235;29;20209;-78
2023/05/16 14:52:26;;;;;;;8.73;6.40;;;12.90;99.90;;;;;;10107402;29;20247;-77
2023/05/16 14:57:47;;;;;;;12.07;7.15;;;13.10;99.90;;;;;;10106587;29;20318;-76
2023/05/16 15:03:09;;;;;;;10.88;6.45;;;13.20;99.90;;;;;;10101335;29;20377;-78
2023/05/16 15:08:31;;;;;;;12.73;7.15;;;13.20;99.90;;;;;;10079014;29;20198;-77
2023/05/16 15:13:55;;;;;;;10.77;7.15;;;13.10;99.90;;;;;;10063005;29;20314;-77
2023/05/16 15:19:16;;;;;;;15.88;7.28;;;13.00;99.90;;;;;;10076877;29;20248;-76
2023/05/16 15:24:37;;;;;;;12.57;7.43;;;13.00;99.90;;;;;;10079279;29;20215;-76
2023/05/16 15:29:59;;;;;;;11.10;6.05;;;13.20;99.90;;;;;;10114346;29;20206;-76
2023/05/16 15:35:20;;;;;;;11.00;6.00;;;13.40;99.90;;;;;;10123717;29;20302;-76
2023/05/16 15:40:41;;;;;;;11.50;6.00;;;13.30;99.90;;;;;;10077271;29;20199;-77
2023/05/16 15:46:03;;;;;;;12.10;5.68;;;13.20;99.90;;;;;;10077925;29;20242;-76
2023/05/16 15:51:23;;;;;;;10.70;6.28;;;13.20;99.90;;;;;;10078161;29;20778;-75
2023/05/16 15:56:44;;;;;;;9.43;5.32;;;13.10;99.90;;;;;;10078262;29;20232;-76
2023/05/16 16:02:06;;;;;;;12.57;5.70;;;13.00;99.90;;;;;;10084726;29;20204;-76
2023/05/16 16:07:27;;;;;;;15.55;6.30;;;12.80;99.90;;;;;;10086683;29;20203;-76
2023/05/16 16:13:02;;;;;;;9.98;4.70;;;12.80;99.90;;;;;;10085390;29;20536;-76
2023/05/16 16:18:23;;;;;;;12.27;5.70;;;12.80;99.90;;;;;;10085869;29;20248;-76
2023/05/16 16:23:44;;;;;;;13.15;5.97;;;12.90;99.90;;;;;;10096627;29;20234;-76
2023/05/16 16:29:05;;;;;;;18.27;5.03;;;12.90;99.90;;;;;;10123942;29;20552;-75
2023/05/16 16:34:26;;;;;;;11.27;4.60;;;12.80;99.90;;;;;;10122932;29;20239;-75
2023/05/16 16:39:47;;;;;;;14.73;4.57;;;;;;;;;;10161744;29;20286;-75
2023/05/16 16:45:08;;;;;;;13.45;4.15;;;12.50;99.90;;;;;;10107486;29;20236;-76
2023/05/16 16:50:30;;;;;;;16.40;4.25;;;12.50;99.90;;;;;;10084918;29;20199;-75
2023/05/16 16:55:51;;;;;;;9.30;3.40;;;12.40;99.90;;;;;;10087613;29;20237;-76
2023/05/16 17:01:12;;;;;;;12.15;4.15;;;12.40;99.90;;;;;;10067968;29;20210;-76
2023/05/16 17:06:34;;;;;;;12.77;3.90;;;12.40;99.90;;;;;;10086680;29;20312;-76
2023/05/16 17:11:55;;;;;;;10.98;3.70;;;12.40;99.90;;;;;;10084436;29;20259;-76
2023/05/16 17:17:17;;;;;;;16.20;4.32;;;12.40;99.90;;;;;;10082689;29;20241;-76
2023/05/16 17:22:39;;;;;;;13.18;4.47;;;12.40;99.90;;;;;;10075293;29;20206;-76
2023/05/16 17:28:00;;;;;;;14.25;3.63;;;12.30;99.90;;;;;;10122028;29;20197;-75
2023/05/16 17:33:21;;;;;;;6.85;2.42;;;12.20;99.90;;;;;;10097336;29;20243;-75
2023/05/16 17:38:42;;;;;;;6.03;2.50;;;12.10;99.90;;;;;;10160432;29;20252;-76
2023/05/16 17:44:05;;;;;;;8.70;2.70;;;12.10;99.90;;;;;;10128407;29;20279;-76
2023/05/16 17:49:27;;;;;;;8.63;3.30;;;12.10;99.90;;;;;;10069027;29;20485;-76
2023/05/16 17:54:47;;;;;;;9.73;3.17;;;12.10;99.90;;;;;;10081974;29;20233;-75
2023/05/16 18:00:09;;;;;;;10.68;2.30;;;12.00;99.90;;;;;;10066177;29;20206;-77
2023/05/16 18:05:31;;;;;;;10.90;2.47;;;12.10;99.90;;;;;;10082428;29;20217;-75
2023/05/16 18:10:53;;;;;;;5.95;2.50;;;12.00;99.90;;;;;;10085104;29;20485;-76
2023/05/16 18:16:14;;;;;;;6.78;2.67;;;12.00;99.90;;;;;;10081887;29;20245;-76
2023/05/16 18:21:36;;;;;;;7.55;2.10;;;12.00;99.90;;;;;;10089699;29;20205;-76
2023/05/16 18:27:00;;;;;;;8.77;2.53;;;11.90;99.90;;;;;;10119922;29;20248;-76
2023/05/16 18:32:21;;;;;;;9.63;2.47;;;11.90;99.90;;;;;;10107541;29;20249;-77
2023/05/16 18:37:42;;;;;;;7.00;2.30;;;11.90;99.90;;;;;;10148636;29;20204;-76
2023/05/16 18:43:04;;;;;;;12.27;2.63;;;11.80;99.90;;;;;;10128876;29;20217;-76
2023/05/16 18:48:25;;;;;;;7.32;2.30;;;11.80;99.90;;;;;;10064413;29;20209;-76
2023/05/16 18:53:46;;;;;;;8.97;3.10;;;11.80;99.90;;;;;;10066359;29;20245;-75
2023/05/16 18:59:08;;;;;;;9.20;2.42;;;11.70;99.90;;;;;;10080249;29;20204;-76
2023/05/16 19:04:29;;;;;;;4.88;2.22;;;;;;;;;;10083196;29;20470;-75
2023/05/16 19:09:51;;;;;;;6.25;2.53;;;;;;;;;;10066863;29;20247;-75
2023/05/16 19:15:12;;;;;;;9.23;3.08;;;11.70;99.90;;;;;;10079940;29;20230;-76
2023/05/16 19:20:34;;;;;;;7.40;4.30;;;11.70;99.90;;;;;;10081676;29;20213;-76
2023/05/16 19:25:55;;;;;;;15.07;5.38;;;11.60;99.90;;;;;;10082461;29;20216;-76
2023/05/16 19:31:16;;;;;;;13.07;5.85;;;11.40;99.90;;;;;;10063001;29;20253;-76
2023/05/16 19:36:37;;;;;;;14.90;6.93;;;11.40;99.90;;;;;;10063627;29;20238;-76
2023/05/16 19:41:59;;;;;;;16.87;7.37;;;11.40;99.90;;;;;;10077869;29;20247;-76
2023/05/16 19:47:26;;;;;;;15.05;6.55;;;11.40;99.90;;;;;;10062345;29;20221;-76
2023/05/16 19:52:48;;;;;;;15.73;7.20;;;11.30;99.90;;;;;;10082270;29;20415;-76
2023/05/16 19:58:08;;;;;;;9.77;5.82;;;11.30;99.90;;;;;;10062791;29;20209;-76
2023/05/16 20:03:30;;;;;;;12.60;5.30;;;11.30;99.90;;;;;;10082320;29;20203;-76
2023/05/16 20:08:51;;;;;;;14.40;4.90;;;11.20;99.90;;;;;;10071135;29;20437;-77
2023/05/16 20:14:12;;;;;;;7.63;3.93;;;11.20;99.90;;;;;;10088900;29;20237;-75
2023/05/16 20:19:35;;;;;;;10.85;6.10;;;11.10;99.90;;;;;;10078447;29;20340;-76
2023/05/16 20:24:56;;;;;;;14.98;8.23;;;11.10;99.90;;;;;;10077443;29;20211;-76
2023/05/16 20:30:17;;;;;;;16.77;9.95;;;11.00;99.90;;;;;;10077966;29;20507;-76
2023/05/16 20:35:38;;;;;;;24.35;14.00;;;10.90;99.90;;;;;;10133576;29;20557;-77
2023/05/16 20:40:59;;;;;;;19.00;9.63;;;10.90;99.90;;;;;;10146331;29;20202;-75
2023/05/16 20:46:20;;;;;;;19.45;8.98;;;10.80;99.90;;;;;;10119255;29;20190;-76
2023/05/16 20:51:41;;;;;;;23.65;12.05;;;10.70;99.90;;;;;;10100008;29;20436;-75
2023/05/16 20:57:03;;;;;;;31.00;15.17;;;10.70;99.90;;;;;;10083971;29;20235;-76
2023/05/16 21:02:23;;;;;;;44.60;21.40;;;10.70;99.90;;;;;;10071075;29;20207;-76
2023/05/16 21:07:45;;;;;;;44.50;22.33;;;10.70;99.90;;;;;;10084768;29;20382;-75
2023/05/16 21:13:06;;;;;;;38.97;17.97;;;10.60;99.90;;;;;;10087404;29;20547;-76
2023/05/16 21:18:27;;;;;;;31.47;15.63;;;10.60;99.90;;;;;;10067302;29;20246;-76
2023/05/16 21:23:48;;;;;;;32.35;12.60;;;10.60;99.90;;;;;;10108477;29;20200;-76
2023/05/16 21:29:08;;;;;;;24.17;9.67;;;10.60;99.90;;;;;;10122447;29;20213;-76
2023/05/16 21:34:29;;;;;;;23.20;7.47;;;10.50;99.90;;;;;;10113473;29;20457;-76
2023/05/16 21:39:52;;;;;;;26.27;7.65;;;10.40;99.90;;;;;;10160677;29;20245;-76
2023/05/16 21:45:15;;;;;;;24.60;7.63;;;10.40;99.90;;;;;;10091772;29;20248;-76
2023/05/16 21:50:36;;;;;;;20.30;7.03;;;10.50;99.90;;;;;;10082012;29;20194;-76
2023/05/16 21:55:58;;;;;;;16.90;7.40;;;10.50;99.90;;;;;;10119330;29;20244;-76
2023/05/16 22:01:23;;;;;;;26.25;7.00;;;10.40;99.90;;;;;;10119210;29;20193;-76
2023/05/16 22:06:44;;;;;;;25.33;7.57;;;10.40;99.90;;;;;;10082636;29;20477;-76
2023/05/16 22:12:06;;;;;;;12.77;6.47;;;10.50;99.90;;;;;;10081410;29;20382;-77
2023/05/16 22:17:27;;;;;;;15.97;5.50;;;10.20;99.90;;;;;;10119648;29;20245;-76
2023/05/16 22:22:49;;;;;;;13.30;5.17;;;10.20;99.90;;;;;;10101028;29;20393;-76
2023/05/16 22:28:10;;;;;;;10.60;4.77;;;10.20;99.90;;;;;;10119434;29;20220;-76
2023/05/16 22:33:31;;;;;;;10.90;4.40;;;10.20;99.90;;;;;;10105681;29;20254;-76
2023/05/16 22:38:52;;;;;;;11.48;5.00;;;10.20;99.90;;;;;;10141721;29;20249;-76
2023/05/16 22:44:14;;;;;;;12.03;4.27;;;10.10;99.90;;;;;;10094672;29;20214;-76
2023/05/16 22:49:35;;;;;;;10.83;4.53;;;10.10;99.90;;;;;;10081034;29;20456;-76
2023/05/16 22:54:59;;;;;;;13.87;5.30;;;10.20;99.90;;;;;;10083781;29;20426;-76
2023/05/16 23:00:22;;;;;;;23.97;6.90;;;10.10;99.90;;;;;;10079477;29;20500;-75
2023/05/16 23:05:43;;;;;;;12.43;4.70;;;10.10;99.90;;;;;;10083668;29;20261;-76
2023/05/16 23:11:04;;;;;;;15.17;5.30;;;10.10;99.90;;;;;;10079871;29;20198;-75
2023/05/16 23:16:25;;;;;;;11.43;4.63;;;10.30;99.90;;;;;;10079970;29;20245;-75
2023/05/16 23:21:45;;;;;;;7.57;3.57;;;9.90;99.90;;;;;;10086156;29;20200;-76
2023/05/16 23:27:09;;;;;;;8.87;3.43;;;10.00;99.90;;;;;;10079729;29;20230;-75
2023/05/16 23:32:31;;;;;;;8.10;3.80;;;;;;;;;;10079112;29;20213;-75
2023/05/16 23:37:52;;;;;;;11.73;3.13;;;9.70;99.90;;;;;;10150467;29;20200;-74
2023/05/16 23:43:14;;;;;;;7.87;3.47;;;9.00;99.90;;;;;;10134944;29;20352;-75
2023/05/16 23:48:35;;;;;;;11.83;3.47;;;10.00;99.90;;;;;;10101269;29;20199;-76
2023/05/16 23:53:56;;;;;;;16.03;3.70;;;9.80;99.90;;;;;;10098681;29;20236;-76
2023/05/16 23:59:18;;;;;;;8.23;3.77;;;10.00;99.90;;;;;;10079048;29;20223;-76
